Report METAR

 

LELL - Sabadell, Spain
Distance from station: E 18km
Dati ricevuti: 22/01/2022 12:30
Sereno
Sereno
 Vento da O
Vento: O 13 km/h
Temperatura: 8°C
Temperatura Vento: 6°C
P.to Rugiada: -1°C
Umidità: 53%
Barometro: 1030 hPa
Summary: Sereno
Visibility: superiore a 10 km
2022/01/22 11:30 LELL 221130Z 26007KT CAVOK 08/M01 Q1030
LEBL - Barcelona Airpor, Spain
Distance from station: SSE 33km
Dati ricevuti: 22/01/2022 12:30
Few Clouds
Few Clouds
 Vento da NO
Vento: NO 13 km/h
Temperatura: 8°C
Temperatura Vento: 6°C
P.to Rugiada: -1°C
Umidità: 53%
Barometro: 1031 hPa
Nuvole: Few Clouds
Visibility: 10 km
Cloud details: Few Clouds 1067 m
2022/01/22 11:30 LEBL 221130Z 32007KT 280V340 9999 FEW035 08/M01 Q1031 NOSIG
LERS - Reus (civ/Mil), Spain
Distance from station: SO 75km
Dati ricevuti: 22/01/2022 12:30
Few Clouds
Few Clouds
 Vento da Variabile
Vento: Variabile 4 km/h
Temperatura: 10°C
P.to Rugiada: -2°C
Umidità: 43%
Barometro: 1031 hPa
Nuvole: Few Clouds
Visibility: 10 km
Cloud details: Few Clouds 1097 m
2022/01/22 11:30 LERS 221130Z VRB02KT 9999 FEW036 10/M02 Q1031
 
LEGE - Gerona/Costa Bra, Spain
Distance from station: ENE 83km
Dati ricevuti: 22/01/2022 12:30
Sereno
Sereno
 Vento da S
Vento: S 6 km/h
Temperatura: 9°C
P.to Rugiada: 0°C
Umidità: 54%
Barometro: 1030 hPa
Summary: Sereno
Visibility: superiore a 10 km
2022/01/22 11:30 LEGE 221130Z 18003KT 090V250 CAVOK 09/00 Q1030
LFMP - Perpignan/Rivesa, France
Distance from station: NNE 155km
Dati ricevuti: 22/01/2022 12:30
Sereno
Sereno
 Vento da NNO
Vento: NNO 20 km/h
Temperatura: 12°C
P.to Rugiada: -4°C
Umidità: 33%
Barometro: 1029 hPa
Summary: Sereno
Visibility: superiore a 10 km
2022/01/22 11:30 LFMP 221130Z AUTO 33011KT CAVOK 12/M04 Q1029 NOSIG
LFMK - Carcassonne/Salv, France
Distance from station: N 191km
Dati ricevuti: 22/01/2022 12:30
Sereno
Sereno
 Vento da O
Vento: O 22 km/h
Temperatura: 6°C
Temperatura Vento: 2°C
P.to Rugiada: -1°C
Umidità: 61%
Barometro: 1032 hPa
Summary: Sereno
Visibility: superiore a 10 km
2022/01/22 11:30 LFMK 221130Z AUTO 27012KT 230V290 CAVOK 06/M01 Q1032 TEMPO 26015G25KT
 
LEHC - Huesca-Pirineos, Spain
Distance from station: ONO 193km
Dati ricevuti: 22/01/2022 12:30
Sereno
Sereno
 Vento da E
Vento: E 7 km/h
Temperatura: 1°C
Temperatura Vento: -2°C
P.to Rugiada: -2°C
Umidità: 81%
Barometro: 1030 hPa
Summary: Sereno
Visibility: superiore a 10 km
2022/01/22 11:30 LEHC 221130Z 09004KT 050V150 CAVOK 01/M02 Q1030
LFMU - Beziers/Vias, France
Distance from station: NNE 232km
Dati ricevuti: 22/01/2022 12:30
Sereno
Sereno
 Vento da O
Vento: O 15 km/h
Temperatura: 9°C
Temperatura Vento: 7°C
P.to Rugiada: -2°C
Umidità: 46%
Barometro: 1030 hPa
Summary: Sereno
Visibility: superiore a 10 km
2022/01/22 11:30 LFMU 221130Z AUTO 28008KT CAVOK 09/M02 Q1030 NOSIG
LEPA - Palma De Mallorc, Spain
Distance from station: SSE 233km
Dati ricevuti: 22/01/2022 12:30
Few Clouds
Few Clouds
 Vento da ENE
Vento: ENE 11 km/h
Temperatura: 12°C
P.to Rugiada: 4°C
Umidità: 58%
Barometro: 1030 hPa
Nuvole: Few Clouds
Visibility: 10 km
Cloud details: Few Clouds 914 m
2022/01/22 11:30 LEPA 221130Z 07006KT 050V120 9999 FEW030 12/04 Q1030 NOSIG
 
LFBO - Toulouse/Blagnac, France
Distance from station: N 236km
Dati ricevuti: 22/01/2022 12:30
Sereno
Sereno
 Vento da ONO
Vento: ONO 6 km/h
Temperatura: 4°C
P.to Rugiada: -1°C
Umidità: 70%
Barometro: 1033 hPa
Summary: Sereno
Visibility: superiore a 10 km
2022/01/22 11:30 LFBO 221130Z AUTO 30003KT 250V020 CAVOK 04/M01 Q1033 NOSIG
LFBT - Tarbes/Ossun, France
Distance from station: NO 239km
Dati ricevuti: 22/01/2022 12:30
Sereno
Sereno
 Vento da Variabile
Vento: Variabile 4 km/h
Temperatura: 4°C
P.to Rugiada: -2°C
Umidità: 65%
Barometro: 1032 hPa
Summary: Sereno
Visibility: superiore a 10 km
2022/01/22 11:30 LFBT 221130Z AUTO VRB02KT CAVOK 04/M02 Q1032 NOSIG
LEZG - Zaragoza (mil/Ci, Spain
Distance from station: O 242km
Dati ricevuti: 22/01/2022 12:30
Sereno
Sereno
 Vento da ONO
Vento: ONO 7 km/h
Temperatura: 5°C
Temperatura Vento: 3°C
P.to Rugiada: -3°C
Umidità: 57%
Barometro: 1032 hPa
Summary: Sereno
Visibility: superiore a 10 km
2022/01/22 11:30 LEZG 221130Z 30004KT 260V350 CAVOK 05/M03 Q1032